sensor_id;sensor_type;location;lat;lon;timestamp;temperature;humidity
14097;DHT22;7125;48.106;11.544;2023-06-22T00:01:20;21.00;99.90
14097;DHT22;7125;48.106;11.544;2023-06-22T00:03:48;21.00;99.90
14097;DHT22;7125;48.106;11.544;2023-06-22T00:06:16;21.00;99.90
14097;DHT22;7125;48.106;11.544;2023-06-22T00:08:43;20.90;99.90
14097;DHT22;7125;48.106;11.544;2023-06-22T00:11:10;20.90;99.90
14097;DHT22;7125;48.106;11.544;2023-06-22T00:13:38;20.90;99.90
14097;DHT22;7125;48.106;11.544;2023-06-22T00:16:05;20.90;99.90
14097;DHT22;7125;48.106;11.544;2023-06-22T00:18:32;21.00;99.90
14097;DHT22;7125;48.106;11.544;2023-06-22T00:20:59;21.00;99.90
14097;DHT22;7125;48.106;11.544;2023-06-22T00:23:28;21.00;99.90
14097;DHT22;7125;48.106;11.544;2023-06-22T00:25:59;21.00;99.90
14097;DHT22;7125;48.106;11.544;2023-06-22T00:28:26;21.00;99.90
14097;DHT22;7125;48.106;11.544;2023-06-22T00:30:57;20.90;99.90
14097;DHT22;7125;48.106;11.544;2023-06-22T00:33:25;20.90;99.90
14097;DHT22;7125;48.106;11.544;2023-06-22T00:35:54;20.90;99.90
14097;DHT22;7125;48.106;11.544;2023-06-22T00:38:21;20.90;99.90
14097;DHT22;7125;48.106;11.544;2023-06-22T00:40:49;20.80;99.90
14097;DHT22;7125;48.106;11.544;2023-06-22T00:43:16;20.80;99.90
14097;DHT22;7125;48.106;11.544;2023-06-22T00:45:43;20.80;99.90
14097;DHT22;7125;48.106;11.544;2023-06-22T00:48:12;20.80;99.90
14097;DHT22;7125;48.106;11.544;2023-06-22T00:50:39;20.80;99.90
14097;DHT22;7125;48.106;11.544;2023-06-22T00:53:08;20.70;99.90
14097;DHT22;7125;48.106;11.544;2023-06-22T00:55:37;20.70;99.90
14097;DHT22;7125;48.106;11.544;2023-06-22T00:58:06;20.70;99.90
14097;DHT22;7125;48.106;11.544;2023-06-22T01:00:36;20.70;99.90
14097;DHT22;7125;48.106;11.544;2023-06-22T01:03:04;20.70;99.90
14097;DHT22;7125;48.106;11.544;2023-06-22T01:05:35;20.70;99.90
14097;DHT22;7125;48.106;11.544;2023-06-22T01:08:13;20.60;99.90
14097;DHT22;7125;48.106;11.544;2023-06-22T01:10:47;20.60;99.90
14097;DHT22;7125;48.106;11.544;2023-06-22T01:13:26;20.60;99.90
14097;DHT22;7125;48.106;11.544;2023-06-22T01:16:00;20.50;99.90
14097;DHT22;7125;48.106;11.544;2023-06-22T01:18:30;20.50;99.90
14097;DHT22;7125;48.106;11.544;2023-06-22T01:20:57;20.50;99.90
14097;DHT22;7125;48.106;11.544;2023-06-22T01:23:33;20.40;99.90
14097;DHT22;7125;48.106;11.544;2023-06-22T01:26:06;20.40;99.90
14097;DHT22;7125;48.106;11.544;2023-06-22T01:28:43;20.30;99.90
14097;DHT22;7125;48.106;11.544;2023-06-22T01:31:14;20.30;99.90
14097;DHT22;7125;48.106;11.544;2023-06-22T01:33:44;20.30;99.90
14097;DHT22;7125;48.106;11.544;2023-06-22T01:36:13;20.30;99.90
14097;DHT22;7125;48.106;11.544;2023-06-22T01:38:42;20.20;99.90
14097;DHT22;7125;48.106;11.544;2023-06-22T01:41:11;20.20;99.90
14097;DHT22;7125;48.106;11.544;2023-06-22T01:43:39;20.20;99.90
14097;DHT22;7125;48.106;11.544;2023-06-22T01:46:08;20.10;99.90
14097;DHT22;7125;48.106;11.544;2023-06-22T01:48:35;20.20;99.90
14097;DHT22;7125;48.106;11.544;2023-06-22T01:51:02;20.10;99.90
14097;DHT22;7125;48.106;11.544;2023-06-22T01:53:30;20.10;99.90
14097;DHT22;7125;48.106;11.544;2023-06-22T01:55:57;20.10;99.90
14097;DHT22;7125;48.106;11.544;2023-06-22T01:58:28;20.00;99.90
14097;DHT22;7125;48.106;11.544;2023-06-22T02:00:59;20.00;99.90
14097;DHT22;7125;48.106;11.544;2023-06-22T02:03:34;20.00;99.90
14097;DHT22;7125;48.106;11.544;2023-06-22T02:06:05;20.00;99.90
14097;DHT22;7125;48.106;11.544;2023-06-22T02:08:38;19.90;99.90
14097;DHT22;7125;48.106;11.544;2023-06-22T02:11:09;19.90;99.90
14097;DHT22;7125;48.106;11.544;2023-06-22T02:13:37;19.90;99.90
14097;DHT22;7125;48.106;11.544;2023-06-22T02:16:09;19.80;99.90
14097;DHT22;7125;48.106;11.544;2023-06-22T02:18:46;19.80;99.90
14097;DHT22;7125;48.106;11.544;2023-06-22T02:21:13;19.70;99.90
14097;DHT22;7125;48.106;11.544;2023-06-22T02:23:41;19.60;99.90
14097;DHT22;7125;48.106;11.544;2023-06-22T02:26:08;19.60;99.90
14097;DHT22;7125;48.106;11.544;2023-06-22T02:28:35;19.50;99.90
14097;DHT22;7125;48.106;11.544;2023-06-22T02:31:02;19.40;99.90
14097;DHT22;7125;48.106;11.544;2023-06-22T02:33:29;19.40;99.90
14097;DHT22;7125;48.106;11.544;2023-06-22T02:35:57;19.40;99.90
14097;DHT22;7125;48.106;11.544;2023-06-22T02:38:24;19.30;99.90
14097;DHT22;7125;48.106;11.544;2023-06-22T02:40:52;19.30;99.90
14097;DHT22;7125;48.106;11.544;2023-06-22T02:43:19;19.30;99.90
14097;DHT22;7125;48.106;11.544;2023-06-22T02:45:46;19.20;99.90
14097;DHT22;7125;48.106;11.544;2023-06-22T02:48:13;19.20;99.90
14097;DHT22;7125;48.106;11.544;2023-06-22T02:50:40;19.10;99.90
14097;DHT22;7125;48.106;11.544;2023-06-22T02:53:08;19.10;99.90
14097;DHT22;7125;48.106;11.544;2023-06-22T02:55:39;19.00;99.90
14097;DHT22;7125;48.106;11.544;2023-06-22T02:58:06;19.00;99.90
14097;DHT22;7125;48.106;11.544;2023-06-22T03:00:37;19.00;99.90
14097;DHT22;7125;48.106;11.544;2023-06-22T03:03:05;19.00;99.90
14097;DHT22;7125;48.106;11.544;2023-06-22T03:05:32;19.00;99.90
14097;DHT22;7125;48.106;11.544;2023-06-22T03:08:01;19.00;99.90
14097;DHT22;7125;48.106;11.544;2023-06-22T03:10:33;19.00;99.90
14097;DHT22;7125;48.106;11.544;2023-06-22T03:13:00;19.00;99.90
14097;DHT22;7125;48.106;11.544;2023-06-22T03:15:27;19.00;99.90
14097;DHT22;7125;48.106;11.544;2023-06-22T03:17:55;19.00;99.90
14097;DHT22;7125;48.106;11.544;2023-06-22T03:20:23;19.00;99.90
14097;DHT22;7125;48.106;11.544;2023-06-22T03:22:51;18.90;99.90
14097;DHT22;7125;48.106;11.544;2023-06-22T03:25:19;18.90;99.90
14097;DHT22;7125;48.106;11.544;2023-06-22T03:27:49;18.90;99.90
14097;DHT22;7125;48.106;11.544;2023-06-22T03:30:16;18.90;99.90
14097;DHT22;7125;48.106;11.544;2023-06-22T03:32:45;18.80;99.90
14097;DHT22;7125;48.106;11.544;2023-06-22T03:35:12;18.80;99.90
14097;DHT22;7125;48.106;11.544;2023-06-22T03:37:40;18.80;99.90
14097;DHT22;7125;48.106;11.544;2023-06-22T03:40:08;18.80;99.90
14097;DHT22;7125;48.106;11.544;2023-06-22T03:42:35;18.90;99.90
14097;DHT22;7125;48.106;11.544;2023-06-22T03:45:04;18.80;99.90
14097;DHT22;7125;48.106;11.544;2023-06-22T03:47:32;18.80;99.90
14097;DHT22;7125;48.106;11.544;2023-06-22T03:50:00;18.80;99.90
14097;DHT22;7125;48.106;11.544;2023-06-22T03:52:29;18.90;99.90
14097;DHT22;7125;48.106;11.544;2023-06-22T03:54:56;18.90;99.90
14097;DHT22;7125;48.106;11.544;2023-06-22T03:57:22;18.90;99.90
14097;DHT22;7125;48.106;11.544;2023-06-22T03:59:49;18.90;99.90
14097;DHT22;7125;48.106;11.544;2023-06-22T04:02:18;18.90;99.90
14097;DHT22;7125;48.106;11.544;2023-06-22T04:04:45;19.00;99.90
14097;DHT22;7125;48.106;11.544;2023-06-22T04:07:11;19.00;99.90
14097;DHT22;7125;48.106;11.544;2023-06-22T04:09:38;19.00;99.90
14097;DHT22;7125;48.106;11.544;2023-06-22T04:12:06;19.10;99.90
14097;DHT22;7125;48.106;11.544;2023-06-22T04:14:33;19.10;99.90
14097;DHT22;7125;48.106;11.544;2023-06-22T04:17:01;19.20;99.90
14097;DHT22;7125;48.106;11.544;2023-06-22T04:19:30;19.20;99.90
14097;DHT22;7125;48.106;11.544;2023-06-22T04:21:57;19.30;99.90
14097;DHT22;7125;48.106;11.544;2023-06-22T04:24:23;19.30;99.90
14097;DHT22;7125;48.106;11.544;2023-06-22T04:26:50;19.40;99.90
14097;DHT22;7125;48.106;11.544;2023-06-22T04:29:21;19.40;99.90
14097;DHT22;7125;48.106;11.544;2023-06-22T04:31:56;19.50;99.90
14097;DHT22;7125;48.106;11.544;2023-06-22T04:34:24;19.50;99.90
14097;DHT22;7125;48.106;11.544;2023-06-22T04:36:53;19.60;99.90
14097;DHT22;7125;48.106;11.544;2023-06-22T04:39:20;19.60;99.90
14097;DHT22;7125;48.106;11.544;2023-06-22T04:41:47;19.70;99.90
14097;DHT22;7125;48.106;11.544;2023-06-22T04:44:16;19.70;99.90
14097;DHT22;7125;48.106;11.544;2023-06-22T04:46:49;19.70;99.90
14097;DHT22;7125;48.106;11.544;2023-06-22T04:49:20;19.80;99.90
14097;DHT22;7125;48.106;11.544;2023-06-22T04:51:48;19.80;99.90
14097;DHT22;7125;48.106;11.544;2023-06-22T04:54:18;19.80;99.90
14097;DHT22;7125;48.106;11.544;2023-06-22T04:56:45;19.90;99.90
14097;DHT22;7125;48.106;11.544;2023-06-22T04:59:14;19.90;99.90
14097;DHT22;7125;48.106;11.544;2023-06-22T05:01:44;19.90;99.90
14097;DHT22;7125;48.106;11.544;2023-06-22T05:04:11;20.00;99.90
14097;DHT22;7125;48.106;11.544;2023-06-22T05:06:38;20.00;99.90
14097;DHT22;7125;48.106;11.544;2023-06-22T05:09:05;20.10;99.90
14097;DHT22;7125;48.106;11.544;2023-06-22T05:11:34;20.10;99.90
14097;DHT22;7125;48.106;11.544;2023-06-22T05:14:01;20.20;99.90
14097;DHT22;7125;48.106;11.544;2023-06-22T05:16:27;20.20;99.90
14097;DHT22;7125;48.106;11.544;2023-06-22T05:18:55;20.20;99.90
14097;DHT22;7125;48.106;11.544;2023-06-22T05:21:22;20.20;99.90
14097;DHT22;7125;48.106;11.544;2023-06-22T05:23:50;20.30;99.90
14097;DHT22;7125;48.106;11.544;2023-06-22T05:26:17;20.30;99.90
14097;DHT22;7125;48.106;11.544;2023-06-22T05:28:45;20.40;99.90
14097;DHT22;7125;48.106;11.544;2023-06-22T05:31:13;20.40;99.90
14097;DHT22;7125;48.106;11.544;2023-06-22T05:33:41;20.50;99.90
14097;DHT22;7125;48.106;11.544;2023-06-22T05:36:08;20.60;99.90
14097;DHT22;7125;48.106;11.544;2023-06-22T05:38:35;20.70;99.90
14097;DHT22;7125;48.106;11.544;2023-06-22T05:41:03;20.80;99.90
14097;DHT22;7125;48.106;11.544;2023-06-22T05:43:30;20.80;99.90
14097;DHT22;7125;48.106;11.544;2023-06-22T05:46:00;20.90;99.90
14097;DHT22;7125;48.106;11.544;2023-06-22T05:48:27;20.90;99.90
14097;DHT22;7125;48.106;11.544;2023-06-22T05:50:54;20.90;99.90
14097;DHT22;7125;48.106;11.544;2023-06-22T05:53:21;21.00;99.90
14097;DHT22;7125;48.106;11.544;2023-06-22T05:55:48;21.00;99.90
14097;DHT22;7125;48.106;11.544;2023-06-22T05:58:15;21.10;99.90
14097;DHT22;7125;48.106;11.544;2023-06-22T06:00:42;21.20;99.90
14097;DHT22;7125;48.106;11.544;2023-06-22T06:03:11;21.20;99.90
14097;DHT22;7125;48.106;11.544;2023-06-22T06:05:38;21.30;99.90
14097;DHT22;7125;48.106;11.544;2023-06-22T06:08:06;21.30;99.90
14097;DHT22;7125;48.106;11.544;2023-06-22T06:10:33;21.40;99.90
14097;DHT22;7125;48.106;11.544;2023-06-22T06:13:00;21.40;99.90
14097;DHT22;7125;48.106;11.544;2023-06-22T06:15:29;21.50;99.90
14097;DHT22;7125;48.106;11.544;2023-06-22T06:17:56;21.60;99.90
14097;DHT22;7125;48.106;11.544;2023-06-22T06:20:26;21.70;99.90
14097;DHT22;7125;48.106;11.544;2023-06-22T06:22:53;21.70;99.90
14097;DHT22;7125;48.106;11.544;2023-06-22T06:25:20;21.80;99.90
14097;DHT22;7125;48.106;11.544;2023-06-22T06:27:48;21.90;99.90
14097;DHT22;7125;48.106;11.544;2023-06-22T06:30:16;22.00;99.90
14097;DHT22;7125;48.106;11.544;2023-06-22T06:32:44;22.20;99.90
14097;DHT22;7125;48.106;11.544;2023-06-22T06:35:13;22.30;99.90
14097;DHT22;7125;48.106;11.544;2023-06-22T06:37:43;22.40;99.90
14097;DHT22;7125;48.106;11.544;2023-06-22T06:40:11;22.50;99.90
14097;DHT22;7125;48.106;11.544;2023-06-22T06:42:39;22.60;99.90
14097;DHT22;7125;48.106;11.544;2023-06-22T06:45:08;22.80;99.90
14097;DHT22;7125;48.106;11.544;2023-06-22T06:47:35;22.90;99.90
14097;DHT22;7125;48.106;11.544;2023-06-22T06:50:03;23.00;99.90
14097;DHT22;7125;48.106;11.544;2023-06-22T06:52:30;23.10;99.90
14097;DHT22;7125;48.106;11.544;2023-06-22T06:54:58;23.20;99.90
14097;DHT22;7125;48.106;11.544;2023-06-22T06:57:25;23.30;99.90
14097;DHT22;7125;48.106;11.544;2023-06-22T06:59:54;23.40;99.90
14097;DHT22;7125;48.106;11.544;2023-06-22T07:02:21;23.50;99.90
14097;DHT22;7125;48.106;11.544;2023-06-22T07:04:48;23.60;99.90
14097;DHT22;7125;48.106;11.544;2023-06-22T07:07:15;23.70;99.90
14097;DHT22;7125;48.106;11.544;2023-06-22T07:09:42;23.80;99.90
14097;DHT22;7125;48.106;11.544;2023-06-22T07:12:10;23.90;99.90
14097;DHT22;7125;48.106;11.544;2023-06-22T07:14:37;24.00;99.90
14097;DHT22;7125;48.106;11.544;2023-06-22T07:17:04;24.10;99.90
14097;DHT22;7125;48.106;11.544;2023-06-22T07:19:33;24.30;99.90
14097;DHT22;7125;48.106;11.544;2023-06-22T07:22:00;24.40;99.90
14097;DHT22;7125;48.106;11.544;2023-06-22T07:24:27;24.40;99.90
14097;DHT22;7125;48.106;11.544;2023-06-22T07:26:55;24.50;99.90
14097;DHT22;7125;48.106;11.544;2023-06-22T07:29:26;24.60;99.90
14097;DHT22;7125;48.106;11.544;2023-06-22T07:31:53;24.70;99.90
14097;DHT22;7125;48.106;11.544;2023-06-22T07:34:22;24.80;99.90
14097;DHT22;7125;48.106;11.544;2023-06-22T07:36:49;24.80;99.90
14097;DHT22;7125;48.106;11.544;2023-06-22T07:39:16;25.00;99.90
14097;DHT22;7125;48.106;11.544;2023-06-22T07:41:42;25.10;99.90
14097;DHT22;7125;48.106;11.544;2023-06-22T07:44:09;25.10;99.90
14097;DHT22;7125;48.106;11.544;2023-06-22T07:46:37;25.20;99.90
14097;DHT22;7125;48.106;11.544;2023-06-22T07:49:04;25.30;99.90
14097;DHT22;7125;48.106;11.544;2023-06-22T07:51:33;25.40;99.90
14097;DHT22;7125;48.106;11.544;2023-06-22T07:54:00;25.50;99.60
14097;DHT22;7125;48.106;11.544;2023-06-22T07:56:27;25.60;99.10
14097;DHT22;7125;48.106;11.544;2023-06-22T07:58:54;25.70;98.90
14097;DHT22;7125;48.106;11.544;2023-06-22T08:01:24;25.80;98.70
14097;DHT22;7125;48.106;11.544;2023-06-22T08:03:52;25.90;98.40
14097;DHT22;7125;48.106;11.544;2023-06-22T08:06:19;26.00;98.10
14097;DHT22;7125;48.106;11.544;2023-06-22T08:08:46;26.00;98.10
14097;DHT22;7125;48.106;11.544;2023-06-22T08:11:19;26.10;97.70
14097;DHT22;7125;48.106;11.544;2023-06-22T08:13:47;26.20;98.10
14097;DHT22;7125;48.106;11.544;2023-06-22T08:16:15;26.30;97.10
14097;DHT22;7125;48.106;11.544;2023-06-22T08:18:42;26.40;96.40
14097;DHT22;7125;48.106;11.544;2023-06-22T08:21:11;26.60;96.70
14097;DHT22;7125;48.106;11.544;2023-06-22T08:23:38;26.70;96.30
14097;DHT22;7125;48.106;11.544;2023-06-22T08:26:04;26.80;96.50
14097;DHT22;7125;48.106;11.544;2023-06-22T08:28:31;26.90;96.10
14097;DHT22;7125;48.106;11.544;2023-06-22T08:30:59;27.10;96.70
14097;DHT22;7125;48.106;11.544;2023-06-22T08:33:27;27.10;95.60
14097;DHT22;7125;48.106;11.544;2023-06-22T08:35:56;27.20;95.10
14097;DHT22;7125;48.106;11.544;2023-06-22T08:38:24;27.20;95.80
14097;DHT22;7125;48.106;11.544;2023-06-22T08:40:51;27.10;95.30
14097;DHT22;7125;48.106;11.544;2023-06-22T08:43:18;27.00;95.80
14097;DHT22;7125;48.106;11.544;2023-06-22T08:45:45;27.00;96.50
14097;DHT22;7125;48.106;11.544;2023-06-22T08:48:12;27.00;96.30
14097;DHT22;7125;48.106;11.544;2023-06-22T08:50:39;27.00;96.10
14097;DHT22;7125;48.106;11.544;2023-06-22T08:53:07;27.10;96.60
14097;DHT22;7125;48.106;11.544;2023-06-22T08:55:35;27.10;95.80
14097;DHT22;7125;48.106;11.544;2023-06-22T08:58:02;27.30;95.50
14097;DHT22;7125;48.106;11.544;2023-06-22T09:00:29;27.40;95.30
14097;DHT22;7125;48.106;11.544;2023-06-22T09:03:00;27.60;95.60
14097;DHT22;7125;48.106;11.544;2023-06-22T09:05:27;27.70;94.70
14097;DHT22;7125;48.106;11.544;2023-06-22T09:07:56;27.70;94.40
14097;DHT22;7125;48.106;11.544;2023-06-22T09:10:24;27.80;93.50
14097;DHT22;7125;48.106;11.544;2023-06-22T09:12:53;27.90;93.80
14097;DHT22;7125;48.106;11.544;2023-06-22T09:15:20;28.00;93.50
14097;DHT22;7125;48.106;11.544;2023-06-22T09:17:47;28.10;93.60
14097;DHT22;7125;48.106;11.544;2023-06-22T09:20:14;28.20;93.00
14097;DHT22;7125;48.106;11.544;2023-06-22T09:22:41;28.20;93.00
14097;DHT22;7125;48.106;11.544;2023-06-22T09:25:09;28.20;92.70
14097;DHT22;7125;48.106;11.544;2023-06-22T09:27:36;28.30;92.50
14097;DHT22;7125;48.106;11.544;2023-06-22T09:30:06;28.30;92.20
14097;DHT22;7125;48.106;11.544;2023-06-22T09:32:33;28.40;92.40
14097;DHT22;7125;48.106;11.544;2023-06-22T09:35:03;28.50;92.30
14097;DHT22;7125;48.106;11.544;2023-06-22T09:37:31;28.50;92.70
14097;DHT22;7125;48.106;11.544;2023-06-22T09:39:58;28.60;91.60
14097;DHT22;7125;48.106;11.544;2023-06-22T09:42:24;28.70;92.40
14097;DHT22;7125;48.106;11.544;2023-06-22T09:44:51;28.70;92.20
14097;DHT22;7125;48.106;11.544;2023-06-22T09:47:20;28.90;92.80
14097;DHT22;7125;48.106;11.544;2023-06-22T09:49:47;29.00;91.30
14097;DHT22;7125;48.106;11.544;2023-06-22T09:52:14;29.10;91.00
14097;DHT22;7125;48.106;11.544;2023-06-22T09:54:41;29.10;90.60
14097;DHT22;7125;48.106;11.544;2023-06-22T09:57:09;29.20;90.60
14097;DHT22;7125;48.106;11.544;2023-06-22T09:59:36;29.30;90.20
14097;DHT22;7125;48.106;11.544;2023-06-22T10:02:04;29.30;90.40
14097;DHT22;7125;48.106;11.544;2023-06-22T10:04:33;29.30;89.40
14097;DHT22;7125;48.106;11.544;2023-06-22T10:07:00;29.40;89.30
14097;DHT22;7125;48.106;11.544;2023-06-22T10:09:28;29.60;90.50
14097;DHT22;7125;48.106;11.544;2023-06-22T10:11:55;29.80;90.00
14097;DHT22;7125;48.106;11.544;2023-06-22T10:14:22;29.90;88.40
14097;DHT22;7125;48.106;11.544;2023-06-22T10:16:51;30.10;87.30
14097;DHT22;7125;48.106;11.544;2023-06-22T10:19:18;30.10;88.00
14097;DHT22;7125;48.106;11.544;2023-06-22T10:21:46;30.30;86.90
14097;DHT22;7125;48.106;11.544;2023-06-22T10:24:13;30.40;87.50
14097;DHT22;7125;48.106;11.544;2023-06-22T10:26:39;30.50;85.30
14097;DHT22;7125;48.106;11.544;2023-06-22T10:29:06;30.60;85.80
14097;DHT22;7125;48.106;11.544;2023-06-22T10:31:33;30.80;84.50
14097;DHT22;7125;48.106;11.544;2023-06-22T10:34:00;30.90;84.00
14097;DHT22;7125;48.106;11.544;2023-06-22T10:36:27;31.00;82.70
14097;DHT22;7125;48.106;11.544;2023-06-22T10:38:56;31.20;82.90
14097;DHT22;7125;48.106;11.544;2023-06-22T10:41:25;31.30;83.20
14097;DHT22;7125;48.106;11.544;2023-06-22T10:43:51;31.40;81.00
14097;DHT22;7125;48.106;11.544;2023-06-22T10:46:18;31.50;82.00
14097;DHT22;7125;48.106;11.544;2023-06-22T10:48:45;31.60;81.60
14097;DHT22;7125;48.106;11.544;2023-06-22T10:51:12;31.70;81.00
14097;DHT22;7125;48.106;11.544;2023-06-22T10:53:39;31.80;80.70
14097;DHT22;7125;48.106;11.544;2023-06-22T10:56:08;31.90;81.20
14097;DHT22;7125;48.106;11.544;2023-06-22T10:58:34;32.10;81.20
14097;DHT22;7125;48.106;11.544;2023-06-22T11:01:01;32.30;78.40
14097;DHT22;7125;48.106;11.544;2023-06-22T11:03:28;32.30;78.50
14097;DHT22;7125;48.106;11.544;2023-06-22T11:05:55;32.40;77.40
14097;DHT22;7125;48.106;11.544;2023-06-22T11:08:22;32.30;77.80
14097;DHT22;7125;48.106;11.544;2023-06-22T11:10:51;32.20;77.80
14097;DHT22;7125;48.106;11.544;2023-06-22T11:13:19;32.00;77.90
14097;DHT22;7125;48.106;11.544;2023-06-22T11:15:46;31.90;77.60
14097;DHT22;7125;48.106;11.544;2023-06-22T11:18:13;31.70;77.80
14097;DHT22;7125;48.106;11.544;2023-06-22T11:20:40;31.60;77.70
14097;DHT22;7125;48.106;11.544;2023-06-22T11:23:07;31.50;77.60
14097;DHT22;7125;48.106;11.544;2023-06-22T11:25:34;31.50;78.60
14097;DHT22;7125;48.106;11.544;2023-06-22T11:28:04;31.50;78.30
14097;DHT22;7125;48.106;11.544;2023-06-22T11:30:32;31.50;78.20
14097;DHT22;7125;48.106;11.544;2023-06-22T11:32:59;31.60;77.30
14097;DHT22;7125;48.106;11.544;2023-06-22T11:35:26;31.80;77.80
14097;DHT22;7125;48.106;11.544;2023-06-22T11:37:53;31.90;77.90
14097;DHT22;7125;48.106;11.544;2023-06-22T11:40:21;32.00;76.70
14097;DHT22;7125;48.106;11.544;2023-06-22T11:42:48;32.20;75.60
14097;DHT22;7125;48.106;11.544;2023-06-22T11:45:15;32.40;76.00
14097;DHT22;7125;48.106;11.544;2023-06-22T11:47:45;32.60;75.60
14097;DHT22;7125;48.106;11.544;2023-06-22T11:50:11;32.70;74.50
14097;DHT22;7125;48.106;11.544;2023-06-22T11:52:38;32.70;74.10
14097;DHT22;7125;48.106;11.544;2023-06-22T11:55:06;32.80;74.40
14097;DHT22;7125;48.106;11.544;2023-06-22T11:57:34;32.90;73.10
14097;DHT22;7125;48.106;11.544;2023-06-22T12:00:01;33.00;74.80
14097;DHT22;7125;48.106;11.544;2023-06-22T12:02:32;33.10;74.40
14097;DHT22;7125;48.106;11.544;2023-06-22T12:05:00;33.20;74.40
14097;DHT22;7125;48.106;11.544;2023-06-22T12:07:30;33.20;74.40
14097;DHT22;7125;48.106;11.544;2023-06-22T12:09:57;33.30;75.50
14097;DHT22;7125;48.106;11.544;2023-06-22T12:12:24;33.20;74.40
14097;DHT22;7125;48.106;11.544;2023-06-22T12:14:51;33.20;74.80
14097;DHT22;7125;48.106;11.544;2023-06-22T12:17:17;33.20;76.10
14097;DHT22;7125;48.106;11.544;2023-06-22T12:19:44;33.30;76.60
14097;DHT22;7125;48.106;11.544;2023-06-22T12:22:12;33.50;74.40
14097;DHT22;7125;48.106;11.544;2023-06-22T12:24:39;33.70;74.00
14097;DHT22;7125;48.106;11.544;2023-06-22T12:27:06;33.90;74.50
14097;DHT22;7125;48.106;11.544;2023-06-22T12:29:33;34.10;73.80
14097;DHT22;7125;48.106;11.544;2023-06-22T12:32:01;34.20;72.20
14097;DHT22;7125;48.106;11.544;2023-06-22T12:34:27;34.30;72.50
14097;DHT22;7125;48.106;11.544;2023-06-22T12:36:54;34.30;72.30
14097;DHT22;7125;48.106;11.544;2023-06-22T12:39:22;34.30;70.70
14097;DHT22;7125;48.106;11.544;2023-06-22T12:41:49;34.40;71.90
14097;DHT22;7125;48.106;11.544;2023-06-22T12:44:17;34.20;70.40
14097;DHT22;7125;48.106;11.544;2023-06-22T12:46:44;33.90;70.30
14097;DHT22;7125;48.106;11.544;2023-06-22T12:49:11;33.60;71.10
14097;DHT22;7125;48.106;11.544;2023-06-22T12:51:39;33.40;74.20
14097;DHT22;7125;48.106;11.544;2023-06-22T12:54:07;33.40;73.50
14097;DHT22;7125;48.106;11.544;2023-06-22T12:56:35;33.30;74.10
14097;DHT22;7125;48.106;11.544;2023-06-22T12:59:03;33.20;73.10
14097;DHT22;7125;48.106;11.544;2023-06-22T13:01:30;33.10;73.60
14097;DHT22;7125;48.106;11.544;2023-06-22T13:03:58;33.00;74.50
14097;DHT22;7125;48.106;11.544;2023-06-22T13:06:25;33.00;75.80
14097;DHT22;7125;48.106;11.544;2023-06-22T13:08:52;33.10;76.20
14097;DHT22;7125;48.106;11.544;2023-06-22T13:11:19;33.30;76.00
14097;DHT22;7125;48.106;11.544;2023-06-22T13:13:48;33.60;74.40
14097;DHT22;7125;48.106;11.544;2023-06-22T13:16:15;33.80;73.80
14097;DHT22;7125;48.106;11.544;2023-06-22T13:18:42;33.90;72.80
14097;DHT22;7125;48.106;11.544;2023-06-22T13:21:08;34.00;72.60
14097;DHT22;7125;48.106;11.544;2023-06-22T13:23:35;34.00;73.30
14097;DHT22;7125;48.106;11.544;2023-06-22T13:26:02;34.10;71.80
14097;DHT22;7125;48.106;11.544;2023-06-22T13:28:29;34.20;72.90
14097;DHT22;7125;48.106;11.544;2023-06-22T13:30:57;34.20;72.60
14097;DHT22;7125;48.106;11.544;2023-06-22T13:33:24;34.30;71.60
14097;DHT22;7125;48.106;11.544;2023-06-22T13:35:51;34.30;71.20
14097;DHT22;7125;48.106;11.544;2023-06-22T13:38:18;34.40;73.10
14097;DHT22;7125;48.106;11.544;2023-06-22T13:40:45;34.40;71.70
14097;DHT22;7125;48.106;11.544;2023-06-22T13:43:13;34.50;70.50
14097;DHT22;7125;48.106;11.544;2023-06-22T13:45:40;34.50;69.60
14097;DHT22;7125;48.106;11.544;2023-06-22T13:48:08;34.60;70.80
14097;DHT22;7125;48.106;11.544;2023-06-22T13:50:35;34.80;70.10
14097;DHT22;7125;48.106;11.544;2023-06-22T13:53:02;34.70;70.20
14097;DHT22;7125;48.106;11.544;2023-06-22T13:55:29;34.60;70.20
14097;DHT22;7125;48.106;11.544;2023-06-22T13:57:56;34.60;70.70
14097;DHT22;7125;48.106;11.544;2023-06-22T14:00:23;34.70;71.40
14097;DHT22;7125;48.106;11.544;2023-06-22T14:02:50;34.70;70.90
14097;DHT22;7125;48.106;11.544;2023-06-22T14:05:19;34.70;70.20
14097;DHT22;7125;48.106;11.544;2023-06-22T14:07:46;34.70;69.60
14097;DHT22;7125;48.106;11.544;2023-06-22T14:10:13;34.60;69.60
14097;DHT22;7125;48.106;11.544;2023-06-22T14:12:40;34.60;70.80
14097;DHT22;7125;48.106;11.544;2023-06-22T14:15:07;34.70;70.50
14097;DHT22;7125;48.106;11.544;2023-06-22T14:17:34;34.70;69.50
14097;DHT22;7125;48.106;11.544;2023-06-22T14:20:01;34.60;69.70
14097;DHT22;7125;48.106;11.544;2023-06-22T14:22:29;34.60;69.70
14097;DHT22;7125;48.106;11.544;2023-06-22T14:24:56;34.60;70.10
14097;DHT22;7125;48.106;11.544;2023-06-22T14:27:24;34.80;68.80
14097;DHT22;7125;48.106;11.544;2023-06-22T14:29:51;34.90;69.30
14097;DHT22;7125;48.106;11.544;2023-06-22T14:32:18;34.90;68.40
14097;DHT22;7125;48.106;11.544;2023-06-22T14:34:45;35.00;67.70
14097;DHT22;7125;48.106;11.544;2023-06-22T14:37:12;34.90;67.70
14097;DHT22;7125;48.106;11.544;2023-06-22T14:39:41;35.00;68.20
14097;DHT22;7125;48.106;11.544;2023-06-22T14:42:08;35.00;66.80
14097;DHT22;7125;48.106;11.544;2023-06-22T14:44:35;35.10;66.60
14097;DHT22;7125;48.106;11.544;2023-06-22T14:47:02;35.10;66.10
14097;DHT22;7125;48.106;11.544;2023-06-22T14:49:29;35.10;66.50
14097;DHT22;7125;48.106;11.544;2023-06-22T14:51:56;35.00;65.90
14097;DHT22;7125;48.106;11.544;2023-06-22T14:54:22;34.90;66.00
14097;DHT22;7125;48.106;11.544;2023-06-22T14:56:51;34.90;66.10
14097;DHT22;7125;48.106;11.544;2023-06-22T14:59:17;34.90;66.00
14097;DHT22;7125;48.106;11.544;2023-06-22T15:01:44;34.80;65.80
14097;DHT22;7125;48.106;11.544;2023-06-22T15:04:11;34.70;65.60
14097;DHT22;7125;48.106;11.544;2023-06-22T15:06:38;34.70;65.30
14097;DHT22;7125;48.106;11.544;2023-06-22T15:09:06;34.80;65.30
14097;DHT22;7125;48.106;11.544;2023-06-22T15:11:33;34.70;65.60
14097;DHT22;7125;48.106;11.544;2023-06-22T15:14:01;34.70;65.60
14097;DHT22;7125;48.106;11.544;2023-06-22T15:16:28;34.80;64.40
14097;DHT22;7125;48.106;11.544;2023-06-22T15:18:55;34.90;63.60
14097;DHT22;7125;48.106;11.544;2023-06-22T15:21:22;34.80;63.50
14097;DHT22;7125;48.106;11.544;2023-06-22T15:23:49;34.80;64.20
14097;DHT22;7125;48.106;11.544;2023-06-22T15:26:16;34.70;63.80
14097;DHT22;7125;48.106;11.544;2023-06-22T15:28:43;34.50;64.70
14097;DHT22;7125;48.106;11.544;2023-06-22T15:31:11;34.40;65.60
14097;DHT22;7125;48.106;11.544;2023-06-22T15:33:38;34.20;65.70